sensor_id;sensor_type;location;lat;lon;timestamp;pressure;altitude;pressure_sealevel;temperature;humidity
7168;BME280;3625;51.762;14.320;2022-11-02T00:01:38;101130.34;;;9.09;100.00
7168;BME280;3625;51.762;14.320;2022-11-02T00:04:11;101126.88;;;9.07;100.00
7168;BME280;3625;51.762;14.320;2022-11-02T00:06:40;101138.31;;;9.08;100.00
7168;BME280;3625;51.762;14.320;2022-11-02T00:09:11;101136.50;;;9.08;100.00
7168;BME280;3625;51.762;14.320;2022-11-02T00:11:43;101146.22;;;9.08;100.00
7168;BME280;3625;51.762;14.320;2022-11-02T00:14:12;101146.22;;;9.08;100.00
7168;BME280;3625;51.762;14.320;2022-11-02T00:16:42;101140.06;;;9.06;100.00
7168;BME280;3625;51.762;14.320;2022-11-02T00:19:11;101145.34;;;9.04;100.00
7168;BME280;3625;51.762;14.320;2022-11-02T00:21:40;101151.50;;;9.02;100.00
7168;BME280;3625;51.762;14.320;2022-11-02T00:24:11;101138.38;;;8.88;100.00
7168;BME280;3625;51.762;14.320;2022-11-02T00:26:40;101148.03;;;8.98;100.00
7168;BME280;3625;51.762;14.320;2022-11-02T00:29:09;101148.00;;;9.00;100.00
7168;BME280;3625;51.762;14.320;2022-11-02T00:31:38;101150.66;;;8.98;100.00
7168;BME280;3625;51.762;14.320;2022-11-02T00:34:08;101151.53;;;8.91;100.00
7168;BME280;3625;51.762;14.320;2022-11-02T00:36:37;101150.72;;;8.85;100.00
7168;BME280;3625;51.762;14.320;2022-11-02T00:39:06;101151.59;;;8.84;100.00
7168;BME280;3625;51.762;14.320;2022-11-02T00:41:35;101145.47;;;8.80;100.00
7168;BME280;3625;51.762;14.320;2022-11-02T00:44:05;101141.94;;;8.80;100.00
7168;BME280;3625;51.762;14.320;2022-11-02T00:46:34;101149.84;;;8.78;100.00
7168;BME280;3625;51.762;14.320;2022-11-02T00:49:03;101149.84;;;8.77;100.00
7168;BME280;3625;51.762;14.320;2022-11-02T00:51:35;101152.50;;;8.77;100.00
7168;BME280;3625;51.762;14.320;2022-11-02T00:54:04;101151.63;;;8.81;100.00
7168;BME280;3625;51.762;14.320;2022-11-02T00:56:33;101148.94;;;8.87;100.00
7168;BME280;3625;51.762;14.320;2022-11-02T00:59:03;101152.44;;;8.92;100.00
7168;BME280;3625;51.762;14.320;2022-11-02T01:01:32;101155.97;;;8.89;100.00
7168;BME280;3625;51.762;14.320;2022-11-02T01:04:01;101152.47;;;8.90;100.00
7168;BME280;3625;51.762;14.320;2022-11-02T01:06:30;101148.91;;;8.94;100.00
7168;BME280;3625;51.762;14.320;2022-11-02T01:08:59;101144.50;;;8.92;100.00
7168;BME280;3625;51.762;14.320;2022-11-02T01:11:28;101148.06;;;8.89;100.00
7168;BME280;3625;51.762;14.320;2022-11-02T01:13:57;101145.44;;;8.88;100.00
7168;BME280;3625;51.762;14.320;2022-11-02T01:16:26;101141.91;;;8.87;100.00
7168;BME280;3625;51.762;14.320;2022-11-02T01:18:55;101150.69;;;8.86;100.00
7168;BME280;3625;51.762;14.320;2022-11-02T01:21:25;101142.81;;;8.82;100.00
7168;BME280;3625;51.762;14.320;2022-11-02T01:23:55;101147.22;;;8.80;100.00
7168;BME280;3625;51.762;14.320;2022-11-02T01:26:24;101133.19;;;8.68;100.00
7168;BME280;3625;51.762;14.320;2022-11-02T01:28:53;101146.38;;;8.73;100.00
7168;BME280;3625;51.762;14.320;2022-11-02T01:31:22;101148.09;;;8.80;100.00
7168;BME280;3625;51.762;14.320;2022-11-02T01:33:50;101150.75;;;8.79;100.00
7168;BME280;3625;51.762;14.320;2022-11-02T01:36:20;101144.59;;;8.81;100.00
7168;BME280;3625;51.762;14.320;2022-11-02T01:38:55;101150.75;;;8.82;100.00
7168;BME280;3625;51.762;14.320;2022-11-02T01:41:24;101140.19;;;8.82;100.00
7168;BME280;3625;51.762;14.320;2022-11-02T01:43:55;101138.38;;;8.82;100.00
7168;BME280;3625;51.762;14.320;2022-11-02T01:46:34;101138.44;;;8.81;100.00
7168;BME280;3625;51.762;14.320;2022-11-02T01:49:09;101114.75;;;8.62;100.00
7168;BME280;3625;51.762;14.320;2022-11-02T01:51:44;101077.91;;;8.43;100.00
7168;BME280;3625;51.762;14.320;2022-11-02T01:54:18;101130.53;;;8.73;100.00
7168;BME280;3625;51.762;14.320;2022-11-02T01:56:55;101126.16;;;8.72;100.00
7168;BME280;3625;51.762;14.320;2022-11-02T01:59:31;101127.03;;;8.73;100.00
7168;BME280;3625;51.762;14.320;2022-11-02T02:02:04;101127.91;;;8.70;100.00
7168;BME280;3625;51.762;14.320;2022-11-02T02:04:37;101133.19;;;8.70;100.00
7168;BME280;3625;51.762;14.320;2022-11-02T02:07:07;101132.31;;;8.65;100.00
7168;BME280;3625;51.762;14.320;2022-11-02T02:09:35;101127.06;;;8.62;100.00
7168;BME280;3625;51.762;14.320;2022-11-02T02:12:06;101126.19;;;8.61;100.00
7168;BME280;3625;51.762;14.320;2022-11-02T02:14:35;101122.66;;;8.58;100.00
7168;BME280;3625;51.762;14.320;2022-11-02T02:17:25;101118.31;;;8.54;100.00
7168;BME280;3625;51.762;14.320;2022-11-02T02:20:04;101099.03;;;8.35;100.00
7168;BME280;3625;51.762;14.320;2022-11-02T02:23:07;101125.34;;;8.43;100.00
7168;BME280;3625;51.762;14.320;2022-11-02T02:26:06;101125.34;;;8.41;100.00
7168;BME280;3625;51.762;14.320;2022-11-02T02:28:48;101098.16;;;8.19;100.00
7168;BME280;3625;51.762;14.320;2022-11-02T02:31:25;101128.03;;;8.37;100.00
7168;BME280;3625;51.762;14.320;2022-11-02T02:34:03;101126.25;;;8.36;100.00
7168;BME280;3625;51.762;14.320;2022-11-02T02:36:48;101128.91;;;8.36;100.00
7168;BME280;3625;51.762;14.320;2022-11-02T02:39:26;101130.66;;;8.33;100.00
7168;BME280;3625;51.762;14.320;2022-11-02T02:42:10;101128.00;;;8.27;100.00
7168;BME280;3625;51.762;14.320;2022-11-02T02:44:47;101116.59;;;8.18;100.00
7168;BME280;3625;51.762;14.320;2022-11-02T02:47:22;101117.47;;;8.14;100.00
7168;BME280;3625;51.762;14.320;2022-11-02T02:50:03;101070.97;;;7.79;100.00
7168;BME280;3625;51.762;14.320;2022-11-02T02:52:34;101062.19;;;7.70;100.00
7168;BME280;3625;51.762;14.320;2022-11-02T02:55:08;101118.38;;;8.04;100.00
7168;BME280;3625;51.762;14.320;2022-11-02T02:57:43;101069.25;;;7.77;100.00
7168;BME280;3625;51.762;14.320;2022-11-02T03:00:16;101099.94;;;7.93;100.00
7168;BME280;3625;51.762;14.320;2022-11-02T03:02:48;101114.84;;;7.97;100.00
7168;BME280;3625;51.762;14.320;2022-11-02T03:05:31;101088.53;;;7.85;100.00
7168;BME280;3625;51.762;14.320;2022-11-02T03:08:06;101114.84;;;7.97;100.00
7168;BME280;3625;51.762;14.320;2022-11-02T03:10:43;101111.38;;;7.95;100.00
7168;BME280;3625;51.762;14.320;2022-11-02T03:13:35;101108.72;;;7.92;100.00
7168;BME280;3625;51.762;14.320;2022-11-02T03:16:21;101111.38;;;7.95;100.00
7168;BME280;3625;51.762;14.320;2022-11-02T03:19:03;101115.75;;;7.94;100.00
7168;BME280;3625;51.762;14.320;2022-11-02T03:21:40;101120.13;;;8.00;100.00
7168;BME280;3625;51.762;14.320;2022-11-02T03:24:16;101126.28;;;8.07;100.00
7168;BME280;3625;51.762;14.320;2022-11-02T03:27:02;101117.50;;;8.12;100.00
7168;BME280;3625;51.762;14.320;2022-11-02T03:29:42;101122.75;;;8.15;100.00
7168;BME280;3625;51.762;14.320;2022-11-02T03:32:24;101099.94;;;8.04;100.00
7168;BME280;3625;51.762;14.320;2022-11-02T03:34:57;101120.09;;;8.15;100.00
7168;BME280;3625;51.762;14.320;2022-11-02T03:37:33;101124.53;;;8.12;100.00
7168;BME280;3625;51.762;14.320;2022-11-02T03:40:09;101117.50;;;8.11;100.00
7168;BME280;3625;51.762;14.320;2022-11-02T03:42:43;101121.00;;;8.08;100.00
7168;BME280;3625;51.762;14.320;2022-11-02T03:45:17;101135.06;;;8.09;100.00
7168;BME280;3625;51.762;14.320;2022-11-02T03:47:54;101135.03;;;8.15;100.00
7168;BME280;3625;51.762;14.320;2022-11-02T03:50:24;101130.66;;;8.15;100.00
7168;BME280;3625;51.762;14.320;2022-11-02T03:53:01;101068.34;;;7.82;100.00
7168;BME280;3625;51.762;14.320;2022-11-02T03:55:35;101116.59;;;8.18;100.00
7168;BME280;3625;51.762;14.320;2022-11-02T03:58:05;101121.00;;;8.13;100.00
7168;BME280;3625;51.762;14.320;2022-11-02T04:00:47;101106.09;;;8.03;100.00
7168;BME280;3625;51.762;14.320;2022-11-02T04:03:19;101113.97;;;8.18;100.00
7168;BME280;3625;51.762;14.320;2022-11-02T04:05:52;101113.09;;;8.17;100.00
7168;BME280;3625;51.762;14.320;2022-11-02T04:08:32;101125.38;;;8.21;100.00
7168;BME280;3625;51.762;14.320;2022-11-02T04:11:05;101127.13;;;8.16;100.00
7168;BME280;3625;51.762;14.320;2022-11-02T04:13:54;101129.78;;;8.16;100.00
7168;BME280;3625;51.762;14.320;2022-11-02T04:16:42;101126.25;;;8.14;100.00
7168;BME280;3625;51.762;14.320;2022-11-02T04:19:21;101129.78;;;8.16;100.00
7168;BME280;3625;51.762;14.320;2022-11-02T04:22:00;101126.28;;;8.11;100.00
7168;BME280;3625;51.762;14.320;2022-11-02T04:24:50;101128.91;;;8.10;100.00
7168;BME280;3625;51.762;14.320;2022-11-02T04:27:37;101134.19;;;8.11;100.00
7168;BME280;3625;51.762;14.320;2022-11-02T04:30:09;101123.63;;;8.16;100.00
7168;BME280;3625;51.762;14.320;2022-11-02T04:32:38;101134.19;;;8.20;100.00
7168;BME280;3625;51.762;14.320;2022-11-02T04:35:28;101141.22;;;8.21;100.00
7168;BME280;3625;51.762;14.320;2022-11-02T04:37:58;101138.53;;;8.26;100.00
7168;BME280;3625;51.762;14.320;2022-11-02T04:40:45;101137.66;;;8.25;100.00
7168;BME280;3625;51.762;14.320;2022-11-02T04:43:13;101135.03;;;8.24;100.00
7168;BME280;3625;51.762;14.320;2022-11-02T04:45:42;101135.94;;;8.18;100.00
7168;BME280;3625;51.762;14.320;2022-11-02T04:48:11;101119.25;;;8.07;100.00
7168;BME280;3625;51.762;14.320;2022-11-02T04:50:41;101123.66;;;8.01;100.00
7168;BME280;3625;51.762;14.320;2022-11-02T04:53:09;101135.06;;;8.01;100.00
7168;BME280;3625;51.762;14.320;2022-11-02T04:55:39;101124.50;;;8.06;100.00
7168;BME280;3625;51.762;14.320;2022-11-02T04:58:09;101119.28;;;8.04;100.00
7168;BME280;3625;51.762;14.320;2022-11-02T05:00:37;101125.41;;;8.02;100.00
7168;BME280;3625;51.762;14.320;2022-11-02T05:03:08;101121.91;;;8.01;100.00
7168;BME280;3625;51.762;14.320;2022-11-02T05:05:41;101126.28;;;7.96;100.00
7168;BME280;3625;51.762;14.320;2022-11-02T05:08:10;101125.44;;;7.95;100.00
7168;BME280;3625;51.762;14.320;2022-11-02T05:10:39;101119.25;;;7.90;100.00
7168;BME280;3625;51.762;14.320;2022-11-02T05:13:09;101128.91;;;7.90;100.00
7168;BME280;3625;51.762;14.320;2022-11-02T05:15:39;101114.88;;;7.94;100.00
7168;BME280;3625;51.762;14.320;2022-11-02T05:18:08;101130.69;;;7.91;100.00
7168;BME280;3625;51.762;14.320;2022-11-02T05:20:49;101137.72;;;7.93;100.00
7168;BME280;3625;51.762;14.320;2022-11-02T05:23:21;101114.88;;;7.76;100.00
7168;BME280;3625;51.762;14.320;2022-11-02T05:25:56;101142.09;;;7.82;100.00
7168;BME280;3625;51.762;14.320;2022-11-02T05:28:27;101123.69;;;7.69;100.00
7168;BME280;3625;51.762;14.320;2022-11-02T05:30:59;101139.47;;;7.82;100.00
7168;BME280;3625;51.762;14.320;2022-11-02T05:33:31;101137.72;;;7.77;100.00
7168;BME280;3625;51.762;14.320;2022-11-02T05:36:08;101140.34;;;7.74;100.00
7168;BME280;3625;51.762;14.320;2022-11-02T05:38:40;101144.75;;;7.75;100.00
7168;BME280;3625;51.762;14.320;2022-11-02T05:41:09;101135.09;;;7.75;100.00
7168;BME280;3625;51.762;14.320;2022-11-02T05:43:39;101135.09;;;7.75;100.00
7168;BME280;3625;51.762;14.320;2022-11-02T05:46:10;101142.97;;;7.80;100.00
7168;BME280;3625;51.762;14.320;2022-11-02T05:48:41;101141.22;;;7.82;100.00
7168;BME280;3625;51.762;14.320;2022-11-02T05:51:11;101128.91;;;7.81;100.00
7168;BME280;3625;51.762;14.320;2022-11-02T05:53:39;101139.44;;;7.79;100.00
7168;BME280;3625;51.762;14.320;2022-11-02T05:56:09;101141.25;;;7.86;100.00
7168;BME280;3625;51.762;14.320;2022-11-02T05:58:39;101147.38;;;7.90;100.00
7168;BME280;3625;51.762;14.320;2022-11-02T06:01:09;101142.97;;;7.89;100.00
7168;BME280;3625;51.762;14.320;2022-11-02T06:03:38;101143.00;;;7.86;100.00
7168;BME280;3625;51.762;14.320;2022-11-02T06:06:10;101150.00;;;7.91;100.00
7168;BME280;3625;51.762;14.320;2022-11-02T06:08:39;101148.25;;;7.95;100.00
7168;BME280;3625;51.762;14.320;2022-11-02T06:11:10;101152.63;;;8.01;100.00
7168;BME280;3625;51.762;14.320;2022-11-02T06:13:39;101146.47;;;8.06;100.00
7168;BME280;3625;51.762;14.320;2022-11-02T06:16:09;101148.25;;;8.03;100.00
7168;BME280;3625;51.762;14.320;2022-11-02T06:18:38;101140.34;;;8.03;100.00
7168;BME280;3625;51.762;14.320;2022-11-02T06:21:07;101150.00;;;8.08;100.00
7168;BME280;3625;51.762;14.320;2022-11-02T06:23:37;101139.47;;;8.02;100.00
7168;BME280;3625;51.762;14.320;2022-11-02T06:26:06;101156.13;;;8.07;100.00
7168;BME280;3625;51.762;14.320;2022-11-02T06:28:34;101156.13;;;8.15;100.00
7168;BME280;3625;51.762;14.320;2022-11-02T06:31:03;101155.25;;;8.20;100.00
7168;BME280;3625;51.762;14.320;2022-11-02T06:33:32;101158.78;;;8.21;100.00
7168;BME280;3625;51.762;14.320;2022-11-02T06:36:01;101162.25;;;8.23;100.00
7168;BME280;3625;51.762;14.320;2022-11-02T06:38:29;101156.09;;;8.22;100.00
7168;BME280;3625;51.762;14.320;2022-11-02T06:41:02;101160.50;;;8.23;100.00
7168;BME280;3625;51.762;14.320;2022-11-02T06:43:34;101159.63;;;8.27;100.00
7168;BME280;3625;51.762;14.320;2022-11-02T06:46:05;101161.41;;;8.31;100.00
7168;BME280;3625;51.762;14.320;2022-11-02T06:48:33;101161.41;;;8.38;100.00
7168;BME280;3625;51.762;14.320;2022-11-02T06:51:03;101172.84;;;8.38;100.00
7168;BME280;3625;51.762;14.320;2022-11-02T06:53:32;101163.19;;;8.39;100.00
7168;BME280;3625;51.762;14.320;2022-11-02T06:56:02;101165.75;;;8.48;100.00
7168;BME280;3625;51.762;14.320;2022-11-02T06:58:30;101130.63;;;8.27;100.00
7168;BME280;3625;51.762;14.320;2022-11-02T07:01:01;101147.31;;;8.42;100.00
7168;BME280;3625;51.762;14.320;2022-11-02T07:03:30;101165.72;;;8.67;100.00
7168;BME280;3625;51.762;14.320;2022-11-02T07:05:59;101160.44;;;8.72;100.00
7168;BME280;3625;51.762;14.320;2022-11-02T07:08:28;101163.94;;;8.82;100.00
7168;BME280;3625;51.762;14.320;2022-11-02T07:10:57;101161.25;;;8.89;100.00
7168;BME280;3625;51.762;14.320;2022-11-02T07:13:26;101171.78;;;8.98;100.00
7168;BME280;3625;51.762;14.320;2022-11-02T07:15:55;101163.81;;;9.07;100.00
7168;BME280;3625;51.762;14.320;2022-11-02T07:18:24;101164.66;;;9.16;100.00
7168;BME280;3625;51.762;14.320;2022-11-02T07:20:52;101162.81;;;9.28;100.00
7168;BME280;3625;51.762;14.320;2022-11-02T07:23:21;101168.03;;;9.39;100.00
7168;BME280;3625;51.762;14.320;2022-11-02T07:25:50;101177.66;;;9.49;100.00
7168;BME280;3625;51.762;14.320;2022-11-02T07:28:19;101176.72;;;9.56;100.00
7168;BME280;3625;51.762;14.320;2022-11-02T07:30:52;101156.47;;;9.55;100.00
7168;BME280;3625;51.762;14.320;2022-11-02T07:33:21;101173.09;;;9.71;100.00
7168;BME280;3625;51.762;14.320;2022-11-02T07:35:51;101173.91;;;9.80;100.00
7168;BME280;3625;51.762;14.320;2022-11-02T07:38:20;101176.47;;;9.91;100.00
7168;BME280;3625;51.762;14.320;2022-11-02T07:40:49;101175.53;;;10.00;100.00
7168;BME280;3625;51.762;14.320;2022-11-02T07:43:19;101178.97;;;10.08;100.00
7168;BME280;3625;51.762;14.320;2022-11-02T07:46:00;101179.78;;;10.16;100.00
7168;BME280;3625;51.762;14.320;2022-11-02T07:48:30;101175.34;;;10.21;100.00
7168;BME280;3625;51.762;14.320;2022-11-02T07:51:00;101182.31;;;10.30;100.00
7168;BME280;3625;51.762;14.320;2022-11-02T07:53:30;101169.94;;;10.38;100.00
7168;BME280;3625;51.762;14.320;2022-11-02T07:56:00;101154.97;;;10.34;100.00
7168;BME280;3625;51.762;14.320;2022-11-02T07:58:29;101165.38;;;10.49;100.00
7168;BME280;3625;51.762;14.320;2022-11-02T08:01:00;101163.50;;;10.60;100.00
7168;BME280;3625;51.762;14.320;2022-11-02T08:03:30;101159.91;;;10.66;100.00
7168;BME280;3625;51.762;14.320;2022-11-02T08:06:00;101165.16;;;10.70;100.00
7168;BME280;3625;51.762;14.320;2022-11-02T08:08:30;101144.81;;;10.74;100.00
7168;BME280;3625;51.762;14.320;2022-11-02T08:11:05;101149.94;;;10.89;100.00
7168;BME280;3625;51.762;14.320;2022-11-02T08:13:37;101151.56;;;10.99;100.00
7168;BME280;3625;51.762;14.320;2022-11-02T08:16:31;101154.06;;;11.11;100.00
7168;BME280;3625;51.762;14.320;2022-11-02T08:19:00;101147.75;;;11.21;100.00
7168;BME280;3625;51.762;14.320;2022-11-02T08:21:29;101140.56;;;11.28;100.00
7168;BME280;3625;51.762;14.320;2022-11-02T08:23:58;101152.81;;;11.38;100.00
7168;BME280;3625;51.762;14.320;2022-11-02T08:26:26;101150.03;;;11.47;100.00
7168;BME280;3625;51.762;14.320;2022-11-02T08:28:55;101144.59;;;11.55;100.00
7168;BME280;3625;51.762;14.320;2022-11-02T08:31:23;101149.78;;;11.61;100.00
7168;BME280;3625;51.762;14.320;2022-11-02T08:33:53;101141.78;;;11.67;100.00
7168;BME280;3625;51.762;14.320;2022-11-02T08:36:22;101140.78;;;11.76;100.00
7168;BME280;3625;51.762;14.320;2022-11-02T08:38:50;101143.25;;;11.86;100.00
7168;BME280;3625;51.762;14.320;2022-11-02T08:41:19;101109.78;;;11.78;100.00
7168;BME280;3625;51.762;14.320;2022-11-02T08:43:47;101140.25;;;12.06;100.00
7168;BME280;3625;51.762;14.320;2022-11-02T08:46:16;101149.84;;;12.15;100.00
7168;BME280;3625;51.762;14.320;2022-11-02T08:48:44;101152.41;;;12.19;100.00
7168;BME280;3625;51.762;14.320;2022-11-02T08:51:14;101146.13;;;12.25;100.00
7168;BME280;3625;51.762;14.320;2022-11-02T08:53:42;101156.59;;;12.31;100.00
7168;BME280;3625;51.762;14.320;2022-11-02T08:56:17;101160.06;;;12.36;100.00
7168;BME280;3625;51.762;14.320;2022-11-02T08:58:46;101152.00;;;12.40;100.00
7168;BME280;3625;51.762;14.320;2022-11-02T09:01:15;101139.50;;;12.47;100.00
7168;BME280;3625;51.762;14.320;2022-11-02T09:03:43;101161.28;;;12.64;100.00
7168;BME280;3625;51.762;14.320;2022-11-02T09:06:13;101154.94;;;12.71;100.00
7168;BME280;3625;51.762;14.320;2022-11-02T09:08:41;101162.69;;;12.82;100.00
7168;BME280;3625;51.762;14.320;2022-11-02T09:11:10;101148.25;;;12.97;100.00
7168;BME280;3625;51.762;14.320;2022-11-02T09:13:39;101154.75;;;13.25;100.00
7168;BME280;3625;51.762;14.320;2022-11-02T09:16:07;101158.47;;;13.56;100.00
7168;BME280;3625;51.762;14.320;2022-11-02T09:18:36;101157.84;;;13.82;100.00
7168;BME280;3625;51.762;14.320;2022-11-02T09:21:05;101153.03;;;13.98;100.00
7168;BME280;3625;51.762;14.320;2022-11-02T09:23:35;101162.47;;;14.10;100.00
7168;BME280;3625;51.762;14.320;2022-11-02T09:26:03;101129.91;;;14.00;100.00
7168;BME280;3625;51.762;14.320;2022-11-02T09:28:32;101163.63;;;14.33;100.00
7168;BME280;3625;51.762;14.320;2022-11-02T09:31:00;101163.66;;;14.32;100.00
7168;BME280;3625;51.762;14.320;2022-11-02T09:33:36;101166.53;;;14.24;100.00
7168;BME280;3625;51.762;14.320;2022-11-02T09:36:06;101163.09;;;14.19;100.00
7168;BME280;3625;51.762;14.320;2022-11-02T09:38:35;101161.28;;;14.21;100.00
7168;BME280;3625;51.762;14.320;2022-11-02T09:41:14;101163.06;;;14.21;100.00
7168;BME280;3625;51.762;14.320;2022-11-02T09:43:54;101175.38;;;14.26;100.00
7168;BME280;3625;51.762;14.320;2022-11-02T09:46:32;101168.03;;;14.34;100.00
7168;BME280;3625;51.762;14.320;2022-11-02T09:49:11;101171.31;;;14.46;100.00
7168;BME280;3625;51.762;14.320;2022-11-02T09:51:45;101169.94;;;14.63;100.00
7168;BME280;3625;51.762;14.320;2022-11-02T09:54:23;101142.44;;;14.63;100.00
7168;BME280;3625;51.762;14.320;2022-11-02T09:56:58;101179.66;;;14.66;100.00
7168;BME280;3625;51.762;14.320;2022-11-02T09:59:29;101180.09;;;14.49;100.00
7168;BME280;3625;51.762;14.320;2022-11-02T10:02:06;101177.81;;;14.34;100.00
7168;BME280;3625;51.762;14.320;2022-11-02T10:05:09;101174.34;;;14.30;100.00
7168;BME280;3625;51.762;14.320;2022-11-02T10:08:27;101182.94;;;14.43;100.00
7168;BME280;3625;51.762;14.320;2022-11-02T10:11:14;101187.72;;;14.63;100.00
7168;BME280;3625;51.762;14.320;2022-11-02T10:13:53;101164.47;;;14.69;100.00
7168;BME280;3625;51.762;14.320;2022-11-02T10:16:29;101188.81;;;15.18;100.00
7168;BME280;3625;51.762;14.320;2022-11-02T10:19:03;101192.53;;;15.41;100.00
7168;BME280;3625;51.762;14.320;2022-11-02T10:21:37;101188.84;;;15.47;100.00
7168;BME280;3625;51.762;14.320;2022-11-02T10:24:21;101179.72;;;15.56;99.86
7168;BME280;3625;51.762;14.320;2022-11-02T10:26:55;101183.59;;;15.73;98.66
7168;BME280;3625;51.762;14.320;2022-11-02T10:29:40;101176.50;;;15.72;98.09
7168;BME280;3625;51.762;14.320;2022-11-02T10:32:13;101167.09;;;15.61;98.60
7168;BME280;3625;51.762;14.320;2022-11-02T10:34:44;101181.63;;;15.49;96.84
7168;BME280;3625;51.762;14.320;2022-11-02T10:37:51;101167.31;;;14.94;96.76
7168;BME280;3625;51.762;14.320;2022-11-02T10:40:43;101174.88;;;14.79;98.59
7168;BME280;3625;51.762;14.320;2022-11-02T10:43:36;101182.72;;;14.83;100.00
7168;BME280;3625;51.762;14.320;2022-11-02T10:46:33;101180.88;;;14.85;100.00
7168;BME280;3625;51.762;14.320;2022-11-02T10:49:17;101179.78;;;14.92;99.46
7168;BME280;3625;51.762;14.320;2022-11-02T10:51:49;101148.22;;;14.79;99.62
7168;BME280;3625;51.762;14.320;2022-11-02T10:54:17;101181.53;;;14.93;99.84
7168;BME280;3625;51.762;14.320;2022-11-02T10:56:55;101184.25;;;14.92;97.79
7168;BME280;3625;51.762;14.320;2022-11-02T10:59:26;101169.84;;;14.68;98.03
7168;BME280;3625;51.762;14.320;2022-11-02T11:02:08;101179.81;;;14.60;98.38
7168;BME280;3625;51.762;14.320;2022-11-02T11:04:40;101187.63;;;14.66;98.74
7168;BME280;3625;51.762;14.320;2022-11-02T11:07:16;101187.50;;;14.70;98.12
7168;BME280;3625;51.762;14.320;2022-11-02T11:09:50;101189.22;;;14.73;98.57
7168;BME280;3625;51.762;14.320;2022-11-02T11:12:31;101013.09;;;13.91;98.35
7168;BME280;3625;51.762;14.320;2022-11-02T11:15:05;101159.72;;;14.79;97.35
7168;BME280;3625;51.762;14.320;2022-11-02T11:17:55;101186.91;;;14.92;97.40
7168;BME280;3625;51.762;14.320;2022-11-02T11:20:43;101185.09;;;14.94;94.50
7168;BME280;3625;51.762;14.320;2022-11-02T11:23:21;101187.78;;;14.92;95.80
7168;BME280;3625;51.762;14.320;2022-11-02T11:25:56;101188.97;;;15.13;94.52
7168;BME280;3625;51.762;14.320;2022-11-02T11:28:31;101201.13;;;15.51;92.33
7168;BME280;3625;51.762;14.320;2022-11-02T11:31:06;101193.69;;;15.64;88.67
7168;BME280;3625;51.762;14.320;2022-11-02T11:33:46;101202.03;;;15.81;88.92
7168;BME280;3625;51.762;14.320;2022-11-02T11:36:27;101207.94;;;15.91;87.75
7168;BME280;3625;51.762;14.320;2022-11-02T11:39:00;101205.75;;;15.75;87.25
7168;BME280;3625;51.762;14.320;2022-11-02T11:41:30;101192.88;;;15.60;87.51
7168;BME280;3625;51.762;14.320;2022-11-02T11:44:01;101191.53;;;15.45;88.04
7168;BME280;3625;51.762;14.320;2022-11-02T11:46:44;101193.81;;;15.30;88.95
7168;BME280;3625;51.762;14.320;2022-11-02T11:49:22;101192.31;;;15.20;90.09
7168;BME280;3625;51.762;14.320;2022-11-02T11:52:18;101195.09;;;15.15;91.14
7168;BME280;3625;51.762;14.320;2022-11-02T11:54:57;101185.56;;;15.37;91.66
7168;BME280;3625;51.762;14.320;2022-11-02T11:57:29;101185.97;;;15.82;89.44
7168;BME280;3625;51.762;14.320;2022-11-02T12:00:00;101187.75;;;16.35;84.02
7168;BME280;3625;51.762;14.320;2022-11-02T12:02:34;101184.84;;;16.69;78.75
7168;BME280;3625;51.762;14.320;2022-11-02T12:05:14;101196.09;;;17.02;75.29
7168;BME280;3625;51.762;14.320;2022-11-02T12:08:07;101205.28;;;17.18;72.52
7168;BME280;3625;51.762;14.320;2022-11-02T12:10:57;101205.81;;;17.27;70.82
7168;BME280;3625;51.762;14.320;2022-11-02T12:13:53;101204.09;;;17.48;70.72
7168;BME280;3625;51.762;14.320;2022-11-02T12:16:46;101201.16;;;17.32;69.50
7168;BME280;3625;51.762;14.320;2022-11-02T12:19:32;101207.19;;;17.14;70.24
7168;BME280;3625;51.762;14.320;2022-11-02T12:22:22;101194.94;;;16.59;73.47
7168;BME280;3625;51.762;14.320;2022-11-02T12:25:19;101194.84;;;16.09;76.33
7168;BME280;3625;51.762;14.320;2022-11-02T12:28:02;101195.56;;;15.88;77.46
7168;BME280;3625;51.762;14.320;2022-11-02T12:30:48;101186.09;;;15.78;79.95
7168;BME280;3625;51.762;14.320;2022-11-02T12:33:34;101170.81;;;15.83;80.34
7168;BME280;3625;51.762;14.320;2022-11-02T12:36:22;101189.38;;;16.14;80.09
7168;BME280;3625;51.762;14.320;2022-11-02T12:39:00;101181.75;;;16.28;79.54
7168;BME280;3625;51.762;14.320;2022-11-02T12:41:45;101185.03;;;16.36;80.11
7168;BME280;3625;51.762;14.320;2022-11-02T12:44:41;101188.19;;;16.22;76.18
7168;BME280;3625;51.762;14.320;2022-11-02T12:47:28;101193.47;;;15.98;77.52
7168;BME280;3625;51.762;14.320;2022-11-02T12:50:12;101190.44;;;15.82;79.43
7168;BME280;3625;51.762;14.320;2022-11-02T12:53:05;101186.06;;;15.79;78.96
7168;BME280;3625;51.762;14.320;2022-11-02T12:55:44;101162.53;;;15.35;79.62
7168;BME280;3625;51.762;14.320;2022-11-02T12:58:19;101184.59;;;15.40;80.81
7168;BME280;3625;51.762;14.320;2022-11-02T13:00:54;101196.34;;;15.33;81.91
7168;BME280;3625;51.762;14.320;2022-11-02T13:03:37;101199.78;;;15.38;81.83
7168;BME280;3625;51.762;14.320;2022-11-02T13:06:12;101201.28;;;15.46;81.15
7168;BME280;3625;51.762;14.320;2022-11-02T13:08:48;101196.59;;;15.56;81.06
7168;BME280;3625;51.762;14.320;2022-11-02T13:11:27;101192.88;;;15.60;79.45
7168;BME280;3625;51.762;14.320;2022-11-02T13:13:59;101198.72;;;15.73;78.93
7168;BME280;3625;51.762;14.320;2022-11-02T13:16:39;101169.41;;;15.71;77.81
7168;BME280;3625;51.762;14.320;2022-11-02T13:19:15;101190.91;;;15.67;78.52
7168;BME280;3625;51.762;14.320;2022-11-02T13:21:50;101179.63;;;15.57;79.74
7168;BME280;3625;51.762;14.320;2022-11-02T13:24:30;101169.41;;;15.42;78.30
7168;BME280;3625;51.762;14.320;2022-11-02T13:27:04;101191.31;;;15.53;78.92
7168;BME280;3625;51.762;14.320;2022-11-02T13:29:57;101195.41;;;15.93;77.16
7168;BME280;3625;51.762;14.320;2022-11-02T13:32:32;101141.22;;;15.91;73.34
7168;BME280;3625;51.762;14.320;2022-11-02T13:35:15;101192.91;;;16.14;71.91
7168;BME280;3625;51.762;14.320;2022-11-02T13:37:51;101197.06;;;15.97;72.94